Time;durP1;ratioP1;P1;durP2;ratioP2;P2;SDS_P1;SDS_P2;PMS_P1;PMS_P2;Temp;Humidity;BMP_temperature;BMP_pressure;BME280_temperature;BME280_humidity;BME280_pressure;Samples;Min_cycle;Max_cycle;Signal;HPM_P1;HPM_P2
2023/10/04 00:00:21;;;;;;;9.90;3.13;;;;;;;11.78;100.00;102413.09;6211259;23;20004;-64
2023/10/04 00:02:53;;;;;;;8.43;3.20;;;;;;;11.80;100.00;102413.09;6211965;23;20028;-64
2023/10/04 00:05:21;;;;;;;9.68;3.50;;;;;;;11.80;100.00;102415.72;6187649;23;20005;-64
2023/10/04 00:07:48;;;;;;;7.40;2.97;;;;;;;11.77;100.00;102419.19;6187270;23;20024;-64
2023/10/04 00:10:15;;;;;;;8.35;3.25;;;;;;;11.75;100.00;102420.94;6163281;23;20011;-64
2023/10/04 00:12:45;;;;;;;6.95;3.30;;;;;;;11.72;100.00;102426.19;6187232;23;20016;-64
2023/10/04 00:15:13;;;;;;;8.23;3.30;;;;;;;11.70;100.00;102427.88;6186913;23;20368;-64
2023/10/04 00:17:42;;;;;;;10.00;3.40;;;;;;;11.66;100.00;102428.72;6162239;23;20015;-64
2023/10/04 00:20:19;;;;;;;9.10;3.60;;;;;;;11.63;100.00;102431.31;6188527;23;20036;-64
2023/10/04 00:22:48;;;;;;;10.70;3.58;;;;;;;11.65;100.00;102424.38;6187212;23;20102;-64
2023/10/04 00:25:21;;;;;;;12.00;3.50;;;;;;;11.62;100.00;102424.31;6163989;23;20009;-64
2023/10/04 00:27:55;;;;;;;9.63;3.78;;;;;;;11.58;100.00;102427.78;6188134;23;20063;-64
2023/10/04 00:30:28;;;;;;;9.30;3.00;;;;;;;11.58;100.00;102422.53;6188271;23;20055;-64
2023/10/04 00:32:54;;;;;;;8.75;3.17;;;;;;;11.58;100.00;102427.78;6187806;23;20423;-64
2023/10/04 00:35:21;;;;;;;13.98;3.50;;;;;;;11.53;100.00;102426.88;6187675;23;20020;-64
2023/10/04 00:38:00;;;;;;;11.82;3.05;;;;;;;11.52;100.00;102430.34;6187280;23;20011;-64
2023/10/04 00:40:27;;;;;;;13.38;3.45;;;;;;;11.47;100.00;102419.81;6212108;23;20008;-64
2023/10/04 00:42:54;;;;;;;8.85;3.20;;;;;;;11.51;100.00;102421.59;6213242;23;20362;-64
2023/10/04 00:45:22;;;;;;;15.02;3.40;;;;;;;11.45;100.00;102421.53;6186428;23;20335;-64
2023/10/04 00:47:51;;;;;;;10.32;3.75;;;;;;;11.46;100.00;102431.16;6187797;23;20050;-64
2023/10/04 00:50:22;;;;;;;14.05;3.55;;;;;;;11.42;100.00;102427.63;6187526;23;20007;-64
2023/10/04 00:52:52;;;;;;;13.00;3.25;;;;;;;11.40;100.00;102438.97;6187519;23;20066;-64
2023/10/04 00:55:21;;;;;;;10.10;3.60;;;;;;;11.42;100.00;102437.25;6186761;23;20004;-64
2023/10/04 00:57:51;;;;;;;9.90;3.35;;;;;;;11.35;100.00;102441.56;6162735;23;20016;-64
2023/10/04 01:00:17;;;;;;;11.43;3.30;;;;;;;11.40;100.00;102442.47;6186666;23;20095;-64
2023/10/04 01:02:44;;;;;;;10.18;3.35;;;;;;;11.39;100.00;102452.97;6186899;23;20743;-64
2023/10/04 01:05:11;;;;;;;9.18;3.03;;;;;;;11.36;100.00;102453.81;6187189;23;20009;-64
2023/10/04 01:07:38;;;;;;;14.63;3.58;;;;;;;11.38;100.00;102446.84;6163323;23;20090;-64
2023/10/04 01:10:06;;;;;;;8.27;3.00;;;;;;;11.40;100.00;102444.22;6187561;23;20012;-64
2023/10/04 01:12:32;;;;;;;6.50;2.97;;;;;;;11.40;100.00;102450.34;6187145;23;20342;-64
2023/10/04 01:15:12;;;;;;;8.07;2.80;;;;;;;11.44;100.00;102452.16;6186510;23;20119;-64
2023/10/04 01:17:37;;;;;;;12.13;3.42;;;;;;;11.42;100.00;102446.00;6167614;23;20733;-64
2023/10/04 01:20:11;;;;;;;10.07;3.33;;;;;;;11.38;100.00;102449.47;6162859;23;20150;-64
2023/10/04 01:22:37;;;;;;;11.05;3.35;;;;;;;11.41;100.00;102448.63;6163984;23;20020;-64
2023/10/04 01:25:04;;;;;;;11.05;3.55;;;;;;;11.44;100.00;102454.78;6187676;23;20017;-64
2023/10/04 01:27:30;;;;;;;12.20;3.42;;;;;;;11.34;100.00;102452.06;6211724;23;20015;-64
2023/10/04 01:29:55;;;;;;;9.18;3.15;;;;;;;11.39;100.00;102461.75;6161508;23;20008;-64
2023/10/04 01:32:23;;;;;;;14.98;4.03;;;;;;;11.43;100.00;102458.28;6162462;23;20008;-64
2023/10/04 01:34:48;;;;;;;10.20;3.55;;;;;;;11.41;100.00;102462.63;6163756;23;20374;-64
2023/10/04 01:37:14;;;;;;;10.52;3.30;;;;;;;11.47;100.00;102467.06;6162634;23;20035;-64
2023/10/04 01:39:44;;;;;;;10.25;3.53;;;;;;;11.44;100.00;102461.78;6162463;23;20012;-64
2023/10/04 01:42:11;;;;;;;;;;;;;;;11.52;100.00;102467.09;6189489;23;20013;-64
2023/10/04 01:44:36;;;;;;;;;;;;;;;11.52;100.00;102464.47;6212595;23;19904;-64
2023/10/04 01:47:03;;;;;;;;;;;;;;;11.54;100.00;102462.75;6187956;23;19954;-64
2023/10/04 01:49:28;;;;;;;;;;;;;;;11.56;100.00;102466.25;6211780;23;19903;-64
2023/10/04 01:51:53;;;;;;;;;;;;;;;11.58;100.00;102467.19;6215470;23;19997;-64
2023/10/04 01:54:19;;;;;;;;;;;;;;;11.60;100.00;102473.31;6189530;23;19914;-64
2023/10/04 01:56:44;;;;;;;;;;;;;;;11.60;100.00;102465.44;6189307;23;19907;-64
2023/10/04 01:59:13;;;;;;;;;;;;;;;11.63;100.00;102461.97;6188381;23;19948;-64
2023/10/04 02:01:40;;;;;;;;;;;;;;;11.64;100.00;102461.09;6189431;23;20242;-64
2023/10/04 02:04:05;;;;;;;;;;;;;;;11.66;100.00;102462.88;6188491;23;20362;-64
2023/10/04 02:06:31;;;;;;;;;;;;;;;11.67;100.00;102467.25;6189233;23;19939;-64
2023/10/04 02:08:56;;;;;;;;;;;;;;;11.66;100.00;102457.59;6189353;23;19908;-64
2023/10/04 02:11:22;;;;;;;;;;;;;;;11.68;100.00;102453.28;6214315;23;19916;-64
2023/10/04 02:13:47;;;;;;;;;;;;;;;11.70;100.00;102446.28;6189552;23;19978;-64
2023/10/04 02:16:18;;;;;;;;;;;;;;;11.73;100.00;102459.44;6187948;23;19908;-64
2023/10/04 02:18:43;;;;;;;;;;;;;;;11.74;100.00;102455.06;6188921;23;19912;-64
2023/10/04 02:21:10;;;;;;;;;;;;;;;11.74;100.00;102450.69;6213796;23;20251;-64
2023/10/04 02:23:37;;;;;;;;;;;;;;;11.76;100.00;102451.56;6213781;23;19912;-64
2023/10/04 02:26:06;;;;;;;;;;;;;;;11.78;100.00;102456.88;6214431;23;19911;-64
2023/10/04 02:28:33;;;;;;;;;;;;;;;11.79;100.00;102458.59;6189707;23;20527;-64
2023/10/04 02:30:59;;;;;;;;;;;;;;;11.76;100.00;102454.19;6188403;23;19962;-64
2023/10/04 02:33:31;;;;;;;;;;;;;;;11.79;100.00;102456.88;6213113;23;19987;-64
2023/10/04 02:35:57;;;;;;;;;;;;;;;11.81;100.00;102453.38;6213596;23;20329;-64
2023/10/04 02:38:31;;;;;;;;;;;;;;;11.82;100.00;102455.13;6189229;23;19935;-64
2023/10/04 02:40:58;;;;;;;;;;;;;;;11.81;100.00;102456.91;6165795;23;19962;-64
2023/10/04 02:43:27;;;;;;;;;;;;;;;11.80;100.00;102455.13;6214119;23;19930;-64
2023/10/04 02:45:53;;;;;;;;;;;;;;;11.81;100.00;102464.78;6213927;23;19963;-64
2023/10/04 02:48:23;;;;;;;;;;;;;;;11.81;100.00;102456.00;6188577;23;19912;-64
2023/10/04 02:50:49;;;;;;;;;;;;;;;11.84;100.00;102456.00;6213578;23;19911;-64
2023/10/04 02:53:20;;;;;;;;;;;;;;;11.83;100.00;102459.53;6213794;23;19903;-64
2023/10/04 02:55:46;;;;;;;;;;;;;;;11.83;100.00;102467.41;6214101;23;20336;-64
2023/10/04 02:58:12;;;;;;;;;;;;;;;11.83;100.00;102463.03;6213116;23;20119;-62
2023/10/04 03:00:46;;;;;;;;;;;;;;;11.82;100.00;102465.63;6213314;23;19958;-62
2023/10/04 03:03:19;;;;;;;;;;;;;;;11.83;100.00;102464.78;6189081;23;19915;-62
2023/10/04 03:05:44;;;;;;;;;;;;;;;11.82;100.00;102463.00;6213890;23;19910;-61
2023/10/04 03:08:10;;;;;;;;;;;;;;;11.79;100.00;102459.50;6189103;23;19908;-62
2023/10/04 03:10:38;;;;;;;;;;;;;;;11.79;100.00;102466.50;6213423;23;20030;-62
2023/10/04 03:13:22;;;;;;;;;;;;;;;11.78;100.00;102465.63;6188835;23;19908;-61
2023/10/04 03:15:50;;;;;;;;;;;;;;;11.75;100.00;102468.22;6192229;23;19908;-62
2023/10/04 03:18:19;;;;;;;;;;;;;;;11.75;100.00;102465.59;6213431;23;19923;-61
2023/10/04 03:23:32;;;;;;;;;;;;;;;11.74;100.00;102479.59;6216425;23;20326;-61
2023/10/04 03:26:00;;;;;;;;;;;;;;;11.70;100.00;102496.16;6213564;23;19910;-62
2023/10/04 03:28:25;;;;;;;;;;;;;;;11.67;100.00;102496.16;6188755;23;19907;-62
2023/10/04 03:30:52;;;;;;;;;;;;;;;11.63;100.00;102496.97;6213032;23;19930;-62
2023/10/04 03:33:17;;;;;;;;;;;;;;;11.60;100.00;102489.94;6188040;23;19916;-62
2023/10/04 03:35:44;;;;;;;;;;;;;;;11.55;100.00;102496.91;6213457;23;20229;-61
2023/10/04 03:38:09;;;;;;;;;;;;;;;11.51;100.00;102499.50;6188965;23;19908;-62
2023/10/04 03:40:35;;;;;;;;;;;;;;;11.49;100.00;102503.81;6213832;23;19983;-62
2023/10/04 03:43:02;;;;;;;;;;;;;;;11.46;100.00;102493.28;6187694;23;19958;-62
2023/10/04 03:45:27;;;;;;;;;;;;;;;11.42;100.00;102485.38;6212809;23;20286;-62
2023/10/04 03:47:53;;;;;;;;;;;;;;;11.38;100.00;102491.47;6187866;23;19908;-62
2023/10/04 03:50:19;;;;;;;;;;;;;;;11.33;100.00;102482.63;6213423;23;19912;-62
2023/10/04 03:52:46;;;;;;;;;;;;;;;11.29;100.00;102479.97;6188569;23;19908;-62
2023/10/04 03:55:12;;;;;;;;;;;;;;;11.23;100.00;102480.78;6188715;23;19931;-62
2023/10/04 03:57:42;;;;;;;;;;;;;;;11.17;100.00;102484.22;6212909;23;20005;-62
2023/10/04 04:00:11;;;;;;;;;;;;;;;11.15;100.00;102492.91;6188420;23;19990;-62
2023/10/04 04:02:36;;;;;;;;;;;;;;;11.09;100.00;102476.25;6211732;23;19978;-62
2023/10/04 04:05:05;;;;;;;;;;;;;;;11.07;100.00;102488.47;6188423;23;20384;-62
2023/10/04 04:07:30;;;;;;;;;;;;;;;11.02;100.00;102474.41;6212678;23;19915;-61
2023/10/04 04:09:55;;;;;;;;;;;;;;;10.99;100.00;102477.00;6188613;23;19908;-62
2023/10/04 04:12:22;;;;;;;;;;;;;;;10.95;100.00;102477.81;6187868;23;20288;-62
2023/10/04 04:14:48;;;;;;;;;;;;;;;10.89;100.00;102478.63;6187833;23;19903;-62
2023/10/04 04:17:13;;;;;;;;;;;;;;;10.84;100.00;102487.28;6213159;23;19904;-61
2023/10/04 04:19:39;;;;;;;;;;;;;;;10.81;100.00;102487.25;6187527;23;19934;-62
2023/10/04 04:22:05;;;;;;;;;;;;;;;10.79;100.00;102488.97;6188689;23;19916;-62
2023/10/04 04:24:31;;;;;;;;;;;;;;;10.74;100.00;102479.28;6188231;23;20327;-63
2023/10/04 04:26:58;;;;;;;;;;;;;;;10.73;100.00;102481.88;6188725;23;19912;-64
2023/10/04 04:29:24;;;;;;;;;;;;;;;10.71;100.00;102479.25;6186920;23;19973;-64
2023/10/04 04:31:52;;;;;;;;;;;;;;;10.69;100.00;102475.72;6186960;23;19994;-64
2023/10/04 04:34:18;;;;;;;;;;;;;;;10.68;100.00;102478.34;6212807;23;20246;-64
2023/10/04 04:36:43;;;;;;;;;;;;;;;10.68;100.00;102478.34;6188539;23;19915;-64
2023/10/04 04:39:13;;;;;;;;;;;;;;;10.66;100.00;102470.44;6187241;23;19990;-64
2023/10/04 04:41:38;;;;;;;;;;;;;;;10.66;100.00;102467.84;6212477;23;19903;-63
2023/10/04 04:44:19;;;;;;;;;;;;;;;10.63;100.00;102475.66;6187474;23;19915;-63
2023/10/04 04:46:47;;;;;;;;;;;;;;;10.61;100.00;102466.00;6192126;23;19935;-64
2023/10/04 04:49:13;;;;;;;;;;;;;;;10.60;100.00;102472.97;6164071;23;19912;-64
2023/10/04 04:51:39;;;;;;;;;;;;;;;10.59;100.00;102465.97;6213277;23;19971;-64
2023/10/04 04:54:05;;;;;;;;;;;;;;;10.57;100.00;102467.69;6188214;23;19997;-64
2023/10/04 04:56:31;;;;;;;;;;;;;;;10.57;100.00;102470.31;6210707;23;20233;-63
2023/10/04 04:58:56;;;;;;;;;;;;;;;10.53;100.00;102473.72;6185691;23;19919;-61
2023/10/04 05:01:23;;;;;;;;;;;;;;;10.51;100.00;102462.38;6211519;23;19950;-62
2023/10/04 05:03:50;;;;;;;;;;;;;;;10.46;100.00;102470.16;6185934;23;19908;-63
2023/10/04 05:06:21;;;;;;;;;;;;;;;10.43;100.00;102463.97;6212281;23;19982;-64
2023/10/04 05:08:46;;;;;;;;;;;;;;;10.39;100.00;102469.19;6211941;23;20381;-61
2023/10/04 05:11:11;;;;;;;;;;;;;;;10.35;100.00;102477.84;6211861;23;19908;-62
2023/10/04 05:13:36;;;;;;;;;;;;;;;10.32;100.00;102484.75;6186825;23;19907;-61
2023/10/04 05:16:04;;;;;;;;;;;;;;;10.30;100.00;102478.59;6212062;23;19950;-61
2023/10/04 05:18:30;;;;;;;;;;;;;;;10.27;100.00;102482.09;6188600;23;19904;-62
2023/10/04 05:20:55;;;;;;;;;;;;;;;10.26;100.00;102492.50;6213392;23;20323;-61
2023/10/04 05:23:25;;;;;;;;;;;;;;;10.24;100.00;102518.69;6186268;23;20219;-62
2023/10/04 05:25:54;;;;;;;;;;;;;;;10.21;100.00;102529.13;6212616;23;19914;-63
2023/10/04 05:28:20;;;;;;;;;;;;;;;10.19;100.00;102528.22;6214318;23;19904;-64
2023/10/04 05:30:46;;;;;;;;;;;;;;;10.16;100.00;102525.56;6213020;23;19922;-64
2023/10/04 05:33:18;;;;;;;;;;;;;;;10.15;100.00;102529.91;6213461;23;19911;-64
2023/10/04 05:35:44;;;;;;;;;;;;;;;10.14;100.00;102525.53;6213617;23;19916;-63
2023/10/04 05:38:11;;;;;;;;;;;;;;;10.13;100.00;102515.00;6213798;23;20040;-64
2023/10/04 05:40:43;;;;;;;;;;;;;;;10.11;100.00;102519.34;6214100;23;19907;-64
2023/10/04 05:43:08;;;;;;;;;;;;;;;10.10;100.00;102522.81;6213356;23;20289;-64
2023/10/04 05:45:36;;;;;;;;;;;;;;;10.09;100.00;102528.94;6213531;23;19950;-64
2023/10/04 05:48:01;;;;;;;;;;;;;;;10.08;100.00;102535.00;6212969;23;20530;-64
2023/10/04 05:50:27;;;;;;;;;;;;;;;10.08;100.00;102532.41;6211048;23;19978;-63
2023/10/04 05:52:58;;;;;;;;;;;;;;;10.08;100.00;102537.63;6189749;23;19912;-64
2023/10/04 05:55:23;;;;;;;;;;;;;;;10.09;100.00;102540.28;6214093;23;19903;-64
2023/10/04 05:57:50;;;;;;;;;;;;;;;10.10;100.00;102551.63;6189577;23;20315;-64
2023/10/04 06:00:28;;;;;;;;;;;;;;;10.14;100.00;102549.09;6188704;23;19923;-64
2023/10/04 06:02:54;;;;;;;;;;;;;;;10.20;100.00;102553.53;6214024;23;19911;-64
2023/10/04 06:05:22;;;;;;;;;;;;;;;10.24;100.00;102560.59;6189217;23;19983;-64
2023/10/04 06:07:47;;;;;;;;;;;;;;;10.30;100.00;102555.50;6189144;23;19908;-64
2023/10/04 06:10:14;;;;;;;;;;;;;;;10.37;100.00;102557.38;6189045;23;20303;-64
2023/10/04 06:12:39;;;;;;;;;;;;;;;10.43;100.00;102551.38;6189646;23;19911;-64
2023/10/04 06:15:10;;;;;;;;;;;;;;;10.50;100.00;102547.09;6188189;23;19912;-64
2023/10/04 06:17:38;;;;;;;;;;;;;;;10.60;100.00;102548.13;6189344;23;19912;-64
2023/10/04 06:20:23;;;;;;;;;;;;;;;10.68;100.00;102557.00;6189059;23;19919;-64
2023/10/04 06:22:49;;;;;;;;;;;;;;;10.95;100.00;102556.53;6192120;23;20377;-64
2023/10/04 06:25:15;;;;;;;;;;;;;;;11.43;100.00;102563.28;6213869;23;19922;-64
2023/10/04 06:27:41;;;;;;;;;;;;;;;11.97;100.00;102573.53;6215462;23;19908;-64
2023/10/04 06:30:06;;;;;;;;;;;;;;;12.51;100.00;102573.13;6188291;23;20281;-64
2023/10/04 06:32:37;;;;;;;;;;;;;;;13.04;100.00;102572.59;6213085;23;19908;-64
2023/10/04 06:35:02;;;;;;;;;;;;;;;13.66;100.00;102578.16;6189425;23;19949;-64
2023/10/04 06:37:28;;;;;;;;;;;;;;;14.21;96.79;102587.97;6188729;23;19978;-64
2023/10/04 06:39:54;;;;;;;;;;;;;;;14.80;97.30;102588.88;6213492;23;19908;-64
2023/10/04 06:42:19;;;;;;;;;;;;;;;15.46;94.53;102579.88;6188588;23;19907;-64
2023/10/04 06:44:45;;;;;;;;;;;;;;;16.16;92.83;102587.41;6187947;23;20010;-65
2023/10/04 06:47:10;;;;;;;;;;;;;;;16.76;89.74;102578.97;6163402;23;19909;-65
2023/10/04 06:49:36;;;;;;;;;;;;;;;17.42;90.43;102588.84;6187628;23;19930;-64
2023/10/04 06:52:02;;;;;;;;;;;;;;;18.09;87.95;102587.97;6214215;23;19907;-65
2023/10/04 06:54:28;;;;;;;;;;;;;;;18.65;85.72;102587.94;6188357;23;20011;-65
2023/10/04 06:56:54;;;;;;;;;;;;;;;19.19;82.11;102595.78;6188799;23;20326;-65
2023/10/04 06:59:20;;;;;;;;;;;;;;;19.72;81.45;102589.34;6163220;23;20031;-65
2023/10/04 07:01:45;;;;;;;;;;;;;;;20.21;78.39;102592.69;6188486;23;19936;-65
2023/10/04 07:04:10;;;;;;;;;;;;;;;20.59;76.20;102593.50;6187773;23;20247;-65
2023/10/04 07:06:36;;;;;;;;;;;;;;;20.94;75.47;102589.03;6186976;23;19907;-65
2023/10/04 07:09:01;;;;;;;;;;;;;;;21.14;73.16;102595.63;6188324;23;20330;-65
2023/10/04 07:11:27;;;;;;;;;;;;;;;21.65;72.05;102592.38;6187999;23;19912;-65
2023/10/04 07:13:52;;;;;;;;;;;;;;;22.12;71.35;102607.78;6212469;23;19915;-65
2023/10/04 07:16:17;;;;;;;;;;;;;;;22.64;68.97;102608.75;6186165;23;20217;-65
2023/10/04 07:18:42;;;;;;;;;;;;;;;22.58;69.81;102616.09;6187648;23;20310;-65
2023/10/04 07:21:08;;;;;;;;;;;;;;;22.36;68.63;102618.63;6214148;23;20222;-66
2023/10/04 07:23:33;;;;;;;;;;;;;;;22.56;69.63;102608.13;6187842;23;19919;-66
2023/10/04 07:25:58;;;;;;;;;;;;;;;22.60;70.21;102603.56;6188262;23;19908;-66
2023/10/04 07:28:24;;;;;;;;;;;;;;;22.71;69.49;102609.41;6212750;23;20303;-65
2023/10/04 07:30:50;;;;;;;;;;;;;;;23.15;69.14;102612.31;6187769;23;19990;-66
2023/10/04 07:33:16;;;;;;;;;;;;;;;22.93;64.23;102614.88;6187305;23;19908;-66
2023/10/04 07:35:41;;;;;;;;;;;;;;;22.47;69.35;102614.66;6212850;23;19931;-66
2023/10/04 07:38:07;;;;;;;;;;;;;;;21.84;69.94;102607.78;6187870;23;19930;-66
2023/10/04 07:40:33;;;;;;;;;;;;;;;21.24;70.32;102610.44;6212987;23;19939;-65
2023/10/04 07:43:01;;;;;;;;;;;;;;;21.09;71.45;102612.63;6213130;23;19904;-66
2023/10/04 07:45:28;;;;;;;;;;;;;;;21.16;72.18;102612.44;6188201;23;19918;-66
2023/10/04 07:47:53;;;;;;;;;;;;;;;21.83;69.30;102625.59;6187748;23;19908;-65
2023/10/04 07:50:23;;;;;;;;;;;;;;;22.03;69.39;102621.44;6212379;23;20340;-66
2023/10/04 07:52:50;;;;;;;;;;;;;;;21.63;69.70;102626.22;6212708;23;19904;-66
2023/10/04 07:55:18;;;;;;;;;;;;;;;21.27;70.78;102623.66;6187409;23;19904;-66
2023/10/04 07:57:47;;;;;;;;;;;;;;;21.54;69.28;102631.84;6212299;23;19911;-66
2023/10/04 08:00:14;;;;;;;;;;;;;;;21.91;69.34;102633.34;6187588;23;19923;-66
2023/10/04 08:02:49;;;;;;;;;;;;;;;22.02;69.67;102639.22;6211433;23;19915;-66
2023/10/04 08:05:19;;;;;;;;;;;;;;;22.10;71.29;102642.53;6212835;23;20322;-66
2023/10/04 08:07:48;;;;;;;;;;;;;;;22.00;70.61;102646.44;6188909;23;19908;-66
2023/10/04 08:10:16;;;;;;;;;;;;;;;21.73;68.29;102646.34;6212819;23;20302;-66
2023/10/04 08:12:42;;;;;;;;;;;;;;;21.27;70.74;102637.00;6213507;23;19911;-66
2023/10/04 08:15:08;;;;;;;;;;;;;;;20.79;71.67;102640.06;6212823;23;20026;-66
2023/10/04 08:17:34;;;;;;;;;;;;;;;20.39;72.24;102640.16;6188190;23;19907;-66
2023/10/04 08:19:59;;;;;;;;;;;;;;;20.14;73.07;102641.66;6212479;23;20227;-66
2023/10/04 08:22:24;;;;;;;;;;;;;;;19.67;74.89;102639.13;6185835;23;19915;-66
2023/10/04 08:24:51;;;;;;;;;;;;;;;19.01;74.58;102638.66;6187656;23;20010;-66
2023/10/04 08:27:24;;;;;;;;;;;;;;;18.58;79.35;102639.38;6187598;23;19907;-66
2023/10/04 08:29:50;;;;;;;;;;;;;;;18.13;79.51;102642.72;6211808;23;20244;-66
2023/10/04 08:32:17;;;;;;;;;;;;;;;17.89;77.74;102649.25;6212060;23;19955;-66
2023/10/04 08:34:43;;;;;;;;;;;;;;;17.79;77.61;102644.03;6188115;23;19912;-66
2023/10/04 08:37:08;;;;;;;;;;;;;;;17.74;80.96;102645.00;6212918;23;20333;-66
2023/10/04 08:39:33;;;;;;;;;;;;;;;17.62;79.11;102649.56;6187911;23;20002;-65
2023/10/04 08:42:00;;;;;;;;;;;;;;;17.77;80.09;102651.16;6188298;23;19908;-65
2023/10/04 08:44:25;;;;;;;;;;;;;;;18.09;77.80;102654.31;6212072;23;19908;-65
2023/10/04 08:46:53;;;;;;;;;;;;;;;18.56;76.53;102662.41;6187679;23;20347;-65
2023/10/04 08:49:23;;;;;;;;;;;;;;;18.97;75.86;102659.06;6187189;23;19908;-66
2023/10/04 08:51:51;;;;;;;;;;;;;;;18.94;75.95;102655.63;6212734;23;19978;-66
2023/10/04 08:54:26;;;;;;;;;;;;;;;18.77;75.29;102655.88;6212596;23;19910;-66
2023/10/04 08:56:58;;;;;;;;;;;;;;;18.49;76.45;102656.34;6212196;23;19908;-65
2023/10/04 08:59:24;;;;;;;;;;;;;;;18.17;75.24;102649.72;6212124;23;19973;-66
2023/10/04 09:01:50;;;;;;;;;;;;;;;18.00;76.69;102653.53;6188853;23;19974;-65
2023/10/04 09:04:18;;;;;;;;;;;;;;;17.95;77.03;102655.34;6213941;23;19911;-66
2023/10/04 09:06:45;;;;;;;;;;;;;;;17.86;76.31;102652.81;6214382;23;19978;-65
2023/10/04 09:09:11;;;;;;;;;;;;;;;17.75;77.14;102657.38;6189205;23;19927;-65
2023/10/04 09:11:37;;;;;;;;;;;;;;;17.63;76.79;102656.63;6214508;23;20274;-65
2023/10/04 09:14:04;;;;;;;;;;;;;;;17.62;77.47;102649.56;6214223;23;20027;-65
2023/10/04 09:16:29;;;;;;;;;;;;;;;17.52;77.79;102650.56;6190006;23;19993;-66
2023/10/04 09:19:07;;;;;;;;;;;;;;;17.55;78.58;102658.47;6188749;23;19915;-65
2023/10/04 09:21:33;;;;;;;;;;;;;;;17.50;78.66;102660.31;6214661;23;19907;-65
2023/10/04 09:24:09;;;;;;;;;;;;;;;17.51;78.63;102651.47;6214218;23;19916;-63
2023/10/04 09:26:36;;;;;;;;;;;;;;;17.57;78.83;102648.75;6214850;23;20298;-62
2023/10/04 09:29:05;;;;;;;;;;;;;;;17.52;78.69;102639.97;6189452;23;19912;-62
2023/10/04 09:31:50;;;;;;;;;;;;;;;17.48;78.08;102649.75;6214274;23;19907;-62
2023/10/04 09:34:16;;;;;;;;;;;;;;;17.50;79.07;102647.06;6189537;23;19915;-62
2023/10/04 09:36:42;;;;;;;;;;;;;;;17.57;77.62;102642.56;6188863;23;19908;-62
2023/10/04 09:39:13;;;;;;;;;;;;;;;17.59;78.49;102633.69;6214222;23;20273;-62
2023/10/04 09:41:43;;;;;;;;;;;;;;;17.79;78.24;102638.75;6214496;23;19904;-62
2023/10/04 09:44:23;;;;;;;;;;;;;;;18.17;76.81;102634.72;6213543;23;19904;-63
2023/10/04 09:46:54;;;;;;;;;;;;;;;18.40;75.01;102645.84;6214460;23;19904;-62
2023/10/04 09:49:19;;;;;;;;;;;;;;;18.49;75.15;102651.03;6190025;23;19916;-62
2023/10/04 09:51:45;;;;;;;;;;;;;;;18.51;73.75;102652.75;6214231;23;19907;-62
2023/10/04 09:54:11;;;;;;;;;;;;;;;18.34;73.71;102649.47;6189085;23;19911;-62
2023/10/04 09:56:41;;;;;;;;;;;;;;;18.13;74.62;102651.56;6214055;23;19935;-62
2023/10/04 09:59:07;;;;;;;;;;;;;;;18.04;75.25;102648.16;6213596;23;19942;-62
2023/10/04 10:01:33;;;;;;;;;;;;;;;18.07;76.29;102645.47;6189211;23;19919;-62
2023/10/04 10:04:07;;;;;;;;;;;;;;;18.00;75.91;102648.22;6189068;23;19908;-62
2023/10/04 10:06:40;;;;;;;;;;;;;;;17.88;75.89;102653.66;6213880;23;19912;-62
2023/10/04 10:09:08;;;;;;;;;;;;;;;17.72;75.81;102646.81;6213789;23;19978;-62
2023/10/04 10:11:33;;;;;;;;;;;;;;;17.76;76.84;102660.00;6214074;23;19954;-63
2023/10/04 10:14:01;;;;;;;;;;;;;;;17.97;77.04;102664.19;6188827;23;20246;-62
2023/10/04 10:16:27;;;;;;;;;;;;;;;18.14;75.54;102663.06;6213698;23;19933;-62
2023/10/04 10:18:55;;;;;;;;;;;;;;;18.14;75.87;102660.41;6188413;23;19950;-62
2023/10/04 10:21:20;;;;;;;;;;;;;;;18.20;75.64;102668.25;6189580;23;19908;-62
2023/10/04 10:23:56;;;;;;;;;;;;;;;18.12;76.16;102663.06;6212820;23;20349;-62
2023/10/04 10:26:24;;;;;;;;;;;;;;;18.11;76.26;102661.31;6188207;23;19947;-62
2023/10/04 10:28:58;;;;;;;;;;;;;;;18.14;75.18;102663.91;6163745;23;20349;-62
2023/10/04 10:31:25;;;;;;;;;;;;;;;18.05;75.14;102660.53;6213879;23;20273;-62
2023/10/04 10:33:53;;;;;;;;;;;;;;;18.13;75.25;102648.03;6212727;23;19930;-62
2023/10/04 10:36:21;;;;;;;;;;;;;;;18.07;74.50;102645.47;6213476;23;19904;-62
2023/10/04 10:38:49;;;;;;;;;;;;;;;18.01;75.24;102659.69;6214190;23;19999;-62
2023/10/04 10:41:27;;;;;;;;;;;;;;;17.92;75.19;102650.09;6213281;23;19904;-62
2023/10/04 10:44:11;;;;;;;;;;;;;;;17.81;76.07;102646.66;6213001;23;19935;-61
2023/10/04 10:46:52;;;;;;;;;;;;;;;17.73;74.98;102651.19;6213376;23;20238;-62
2023/10/04 10:49:36;;;;;;;;;;;;;;;17.77;76.45;102642.31;6213011;23;19904;-62
2023/10/04 10:52:02;;;;;;;;;;;;;;;17.93;75.34;102651.84;6213487;23;19907;-62
2023/10/04 10:54:27;;;;;;;;;;;;;;;18.01;74.52;102649.09;6212982;23;19903;-62
2023/10/04 10:56:52;;;;;;;;;;;;;;;18.10;74.43;102642.78;6188690;23;19966;-62
2023/10/04 10:59:18;;;;;;;;;;;;;;;18.21;74.92;102640.84;6187675;23;19911;-61
2023/10/04 11:01:43;;;;;;;;;;;;;;;18.25;72.22;102645.19;6188027;23;19908;-61
2023/10/04 11:04:08;;;;;;;;;;;;;;;18.17;73.00;102639.13;6188159;23;19915;-61
2023/10/04 11:06:38;;;;;;;;;;;;;;;18.22;74.18;102647.91;6213277;23;19979;-62
2023/10/04 11:09:05;;;;;;;;;;;;;;;18.35;74.48;102638.84;6187597;23;19911;-62
2023/10/04 11:11:30;;;;;;;;;;;;;;;18.61;74.56;102639.34;6213808;23;20238;-62
2023/10/04 11:13:59;;;;;;;;;;;;;;;18.82;73.83;102628.34;6187155;23;19994;-65
2023/10/04 11:16:27;;;;;;;;;;;;;;;18.86;73.19;102622.09;6213395;23;20234;-65
2023/10/04 11:18:53;;;;;;;;;;;;;;;18.83;73.23;102619.47;6213359;23;19916;-66
2023/10/04 11:21:18;;;;;;;;;;;;;;;18.87;73.63;102620.31;6188900;23;19915;-62
2023/10/04 11:23:44;;;;;;;;;;;;;;;18.84;72.79;102617.69;6186508;23;20253;-66
2023/10/04 11:26:10;;;;;;;;;;;;;;;18.74;73.25;102616.09;6188345;23;19912;-62
2023/10/04 11:28:36;;;;;;;;;;;;;;;18.66;72.97;102613.56;6188691;23;19908;-62
2023/10/04 11:31:01;;;;;;;;;;;;;;;18.65;73.10;102618.00;6214132;23;20211;-62
2023/10/04 11:33:27;;;;;;;;;;;;;;;18.63;72.88;102611.84;6213110;23;19903;-62
2023/10/04 11:35:52;;;;;;;;;;;;;;;18.68;71.66;102601.16;6213591;23;19908;-66
2023/10/04 11:38:19;;;;;;;;;;;;;;;18.59;72.00;102610.16;6188526;23;19908;-66
2023/10/04 11:40:53;;;;;;;;;;;;;;;18.48;70.41;102610.31;6188712;23;19918;-61
2023/10/04 11:43:24;;;;;;;;;;;;;;;18.23;70.06;102606.31;6188349;23;19904;-62
2023/10/04 11:45:58;;;;;;;;;;;;;;;18.11;71.31;102604.72;6213162;23;19982;-65
2023/10/04 11:48:23;;;;;;;;;;;;;;;18.03;71.74;102601.31;6212967;23;19908;-65
2023/10/04 11:50:50;;;;;;;;;;;;;;;18.12;72.70;102594.09;6188276;23;20359;-65
2023/10/04 11:53:29;;;;;;;;;;;;;;;18.20;72.54;102586.00;6213516;23;19904;-65
2023/10/04 11:55:58;;;;;;;;;;;;;;;18.22;72.90;102588.66;6213572;23;19915;-66
2023/10/04 11:58:23;;;;;;;;;;;;;;;18.16;72.48;102586.97;6188261;23;19961;-65
2023/10/04 12:01:02;;;;;;;;;;;;;;;18.15;72.76;102587.88;6187624;23;19951;-62
2023/10/04 12:03:27;;;;;;;;;;;;;;;18.08;71.92;102592.38;6212877;23;20334;-62
2023/10/04 12:05:52;;;;;;;;;;;;;;;18.06;71.17;102588.91;6188196;23;19904;-61
2023/10/04 12:08:19;;;;;;;;;;;;;;;18.03;71.91;102586.28;6213293;23;20271;-65
2023/10/04 12:10:46;;;;;;;;;;;;;;;17.99;71.65;102589.88;6188094;23;19915;-66
2023/10/04 12:13:13;;;;;;;;;;;;;;;17.98;72.87;102586.34;6188102;23;19982;-62
2023/10/04 12:15:40;;;;;;;;;;;;;;;18.00;71.42;102579.25;6188557;23;19908;-61
2023/10/04 12:18:06;;;;;;;;;;;;;;;18.07;72.92;102584.47;6187618;23;19908;-62
2023/10/04 12:20:36;;;;;;;;;;;;;;;18.02;73.11;102579.22;6187620;23;20011;-65
2023/10/04 12:23:01;;;;;;;;;;;;;;;17.93;72.15;102582.91;6188800;23;19923;-66
2023/10/04 12:25:28;;;;;;;;;;;;;;;17.76;72.55;102566.34;6188321;23;19908;-65